createdAt,value
2022-10-06T00:02:38.844Z,13.77
2022-10-06T00:05:41.785Z,15.60
2022-10-06T00:08:47.004Z,13.32
2022-10-06T00:11:49.485Z,17.05
2022-10-06T00:14:51.694Z,14.40
2022-10-06T00:17:54.998Z,17.65
2022-10-06T00:20:59.211Z,16.77
2022-10-06T00:24:04.157Z,12.90
2022-10-06T00:27:09.335Z,12.80
2022-10-06T00:30:14.996Z,16.70
2022-10-06T00:33:17.826Z,18.27
2022-10-06T00:36:24.622Z,16.05
2022-10-06T00:39:27.045Z,11.82
2022-10-06T00:42:32.008Z,11.90
2022-10-06T00:45:34.113Z,14.32
2022-10-06T00:48:38.831Z,16.48
2022-10-06T00:51:46.077Z,12.15
2022-10-06T00:54:50.138Z,16.90
2022-10-06T00:57:53.057Z,16.15
2022-10-06T01:00:56.701Z,16.27
2022-10-06T01:07:04.479Z,16.00
2022-10-06T01:10:07.053Z,17.43
2022-10-06T01:13:13.347Z,16.05
2022-10-06T01:16:23.508Z,16.73
2022-10-06T01:19:54.043Z,13.65
2022-10-06T01:23:01.877Z,17.05
2022-10-06T01:26:09.111Z,12.37
2022-10-06T01:29:12.687Z,16.48
2022-10-06T01:32:15.317Z,15.85
2022-10-06T01:35:17.658Z,12.02
2022-10-06T01:38:21.980Z,13.98
2022-10-06T01:41:26.140Z,15.43
2022-10-06T01:44:29.181Z,16.75
2022-10-06T01:47:31.482Z,15.90
2022-10-06T01:50:34.636Z,14.27
2022-10-06T01:53:36.911Z,15.80
2022-10-06T01:56:39.995Z,20.00
2022-10-06T01:59:42.914Z,13.93
2022-10-06T02:02:45.721Z,17.17
2022-10-06T02:05:48.275Z,13.93
2022-10-06T02:08:50.572Z,18.77
2022-10-06T02:11:53.129Z,17.73
2022-10-06T02:14:55.313Z,19.95
2022-10-06T02:17:59.419Z,18.95
2022-10-06T02:21:03.801Z,16.50
2022-10-06T02:24:06.130Z,19.40
2022-10-06T02:27:08.786Z,17.25
2022-10-06T02:30:12.711Z,17.50
2022-10-06T02:33:15.216Z,17.23
2022-10-06T02:36:18.633Z,13.80
2022-10-06T02:39:21.418Z,17.20
2022-10-06T02:42:23.831Z,26.37
2022-10-06T02:45:26.627Z,22.05
2022-10-06T02:48:30.097Z,19.15
2022-10-06T02:51:33.156Z,19.52
2022-10-06T02:54:36.756Z,19.05
2022-10-06T02:57:39.738Z,15.77
2022-10-06T03:00:42.290Z,16.10
2022-10-06T03:03:46.758Z,16.45
2022-10-06T03:06:49.473Z,17.62
2022-10-06T03:09:52.300Z,19.58
2022-10-06T03:12:55.682Z,17.35
2022-10-06T03:15:58.607Z,18.70
2022-10-06T03:19:01.674Z,14.57
2022-10-06T03:22:06.074Z,16.80
2022-10-06T03:25:09.761Z,17.58
2022-10-06T03:28:12.379Z,17.05
2022-10-06T03:31:15.482Z,16.17
2022-10-06T03:34:18.182Z,18.27
2022-10-06T03:37:20.819Z,14.87
2022-10-06T03:40:23.560Z,19.48
2022-10-06T03:43:26.091Z,17.87
2022-10-06T03:46:30.932Z,15.35
2022-10-06T03:49:33.262Z,19.42
2022-10-06T03:52:36.104Z,16.98
2022-10-06T03:55:38.414Z,18.27
2022-10-06T03:58:43.806Z,18.30
2022-10-06T04:01:48.168Z,16.58
2022-10-06T04:04:51.200Z,17.58
2022-10-06T04:07:53.534Z,15.80
2022-10-06T04:11:04.126Z,15.85
2022-10-06T04:14:08.692Z,16.58
2022-10-06T04:17:11.617Z,18.02
2022-10-06T04:20:14.244Z,18.83
2022-10-06T04:23:16.949Z,17.92
2022-10-06T04:26:20.430Z,15.27
2022-10-06T04:32:27.080Z,16.17
2022-10-06T04:35:30.179Z,19.17
2022-10-06T04:38:36.868Z,15.38
2022-10-06T04:41:41.943Z,23.00
2022-10-06T04:44:45.010Z,16.87
2022-10-06T04:47:49.059Z,18.75
2022-10-06T04:51:12.682Z,16.50
2022-10-06T04:54:15.810Z,20.15
2022-10-06T04:57:18.283Z,25.27
2022-10-06T05:00:24.953Z,17.67
2022-10-06T05:03:30.680Z,21.52
2022-10-06T05:06:41.376Z,16.40
2022-10-06T05:09:44.040Z,20.17
2022-10-06T05:12:46.578Z,17.67
2022-10-06T05:15:59.318Z,19.02
2022-10-06T05:19:02.915Z,17.50
2022-10-06T05:22:05.224Z,16.80
2022-10-06T05:25:11.958Z,20.50
2022-10-06T05:28:14.494Z,15.55
2022-10-06T05:31:24.168Z,19.17
2022-10-06T05:34:26.800Z,18.42
2022-10-06T05:37:29.352Z,18.10
2022-10-06T05:40:32.344Z,18.45
2022-10-06T05:43:38.308Z,17.05
2022-10-06T05:46:40.815Z,19.73
2022-10-06T05:49:43.424Z,21.62
2022-10-06T05:52:45.959Z,20.35
2022-10-06T05:55:48.569Z,21.25
2022-10-06T05:58:53.084Z,20.55
2022-10-06T06:01:56.087Z,22.02
2022-10-06T06:04:59.994Z,20.05
2022-10-06T06:08:02.523Z,21.23
2022-10-06T06:11:07.620Z,22.58
2022-10-06T06:14:15.663Z,18.12
2022-10-06T06:17:18.340Z,22.50
2022-10-06T06:20:20.813Z,19.30
2022-10-06T06:23:23.521Z,20.52
2022-10-06T06:26:28.863Z,21.30
2022-10-06T06:29:31.433Z,20.10
2022-10-06T06:32:33.686Z,17.48
2022-10-06T06:35:37.320Z,21.25
2022-10-06T06:38:39.611Z,21.35
2022-10-06T06:41:47.516Z,19.10
2022-10-06T06:44:50.540Z,19.45
2022-10-06T06:47:53.335Z,21.58
2022-10-06T06:50:59.406Z,23.87
2022-10-06T06:54:03.324Z,20.00
2022-10-06T06:57:07.107Z,22.15
2022-10-06T07:00:10.297Z,21.98
2022-10-06T07:03:24.133Z,25.42
2022-10-06T07:06:39.561Z,25.67
2022-10-06T07:09:42.227Z,17.30
2022-10-06T07:12:46.237Z,24.05
2022-10-06T07:16:10.029Z,20.20
2022-10-06T07:19:33.101Z,21.65
2022-10-06T07:22:54.336Z,30.77
2022-10-06T07:25:58.129Z,22.17
2022-10-06T07:29:00.480Z,22.05
2022-10-06T07:32:03.634Z,24.87
2022-10-06T07:35:06.590Z,27.27
2022-10-06T07:38:09.702Z,16.42
2022-10-06T07:41:19.428Z,20.37
2022-10-06T07:44:23.236Z,29.00
2022-10-06T07:47:26.751Z,17.65
2022-10-06T07:50:29.539Z,16.50
2022-10-06T07:53:36.155Z,17.55
2022-10-06T07:56:39.609Z,19.40
2022-10-06T07:59:41.964Z,19.85
2022-10-06T08:02:44.554Z,16.05
2022-10-06T08:05:49.233Z,16.35
2022-10-06T08:08:53.221Z,19.60
2022-10-06T08:11:57.621Z,17.00
2022-10-06T08:15:07.589Z,20.77
2022-10-06T08:18:27.312Z,15.55
2022-10-06T08:21:34.529Z,13.05
2022-10-06T08:25:00.979Z,14.98
2022-10-06T08:27:59.518Z,18.48
2022-10-06T08:31:12.213Z,20.35
2022-10-06T08:34:14.642Z,20.93
2022-10-06T08:37:23.709Z,12.30
2022-10-06T08:40:27.582Z,13.70
2022-10-06T08:43:32.200Z,14.80
2022-10-06T08:46:44.161Z,15.45
2022-10-06T08:49:50.131Z,16.87
2022-10-06T08:53:04.872Z,19.50
2022-10-06T08:56:19.761Z,20.73
2022-10-06T08:59:22.307Z,13.73
2022-10-06T09:02:30.049Z,19.95
2022-10-06T09:05:34.928Z,20.67
2022-10-06T09:09:00.335Z,18.05
2022-10-06T09:12:32.094Z,14.50
2022-10-06T09:16:02.254Z,16.92
2022-10-06T09:19:33.570Z,18.85
2022-10-06T09:22:37.103Z,24.60
2022-10-06T09:25:39.636Z,16.92
2022-10-06T09:28:46.159Z,22.40
2022-10-06T09:31:50.526Z,24.98
2022-10-06T09:34:56.029Z,17.17
2022-10-06T09:38:07.843Z,26.67
2022-10-06T09:41:13.693Z,17.37
2022-10-06T09:44:29.213Z,21.40
2022-10-06T09:47:40.808Z,23.05
2022-10-06T09:50:43.024Z,24.17
2022-10-06T09:54:11.170Z,20.77
2022-10-06T09:57:21.474Z,23.60
2022-10-06T10:00:41.725Z,20.52
2022-10-06T10:04:18.737Z,22.45
2022-10-06T10:07:30.449Z,25.12
2022-10-06T10:10:35.433Z,23.25
2022-10-06T10:13:43.956Z,18.23
2022-10-06T10:16:52.356Z,19.08
2022-10-06T10:19:56.085Z,16.85
2022-10-06T10:26:15.310Z,18.52
2022-10-06T10:29:35.464Z,15.13
2022-10-06T10:33:05.101Z,15.38
2022-10-06T10:36:12.726Z,18.30
2022-10-06T10:39:27.349Z,14.98
2022-10-06T10:42:37.684Z,13.90
2022-10-06T10:46:16.938Z,16.40
2022-10-06T10:49:26.689Z,15.30
2022-10-06T10:52:35.919Z,10.30
2022-10-06T10:55:44.878Z,17.70
2022-10-06T10:58:52.748Z,14.65
2022-10-06T11:02:05.758Z,18.20
2022-10-06T11:05:43.088Z,15.13
2022-10-06T11:08:57.608Z,21.33
2022-10-06T11:12:27.061Z,13.15
2022-10-06T11:15:56.563Z,18.80
2022-10-06T11:19:20.575Z,12.80
2022-10-06T11:22:47.164Z,16.25
2022-10-06T11:26:15.660Z,19.23
2022-10-06T11:29:40.583Z,13.15
2022-10-06T11:33:01.375Z,12.88
2022-10-06T11:36:08.470Z,15.32
2022-10-06T11:39:16.631Z,19.95
2022-10-06T11:42:37.939Z,18.77
2022-10-06T11:45:48.984Z,16.45
2022-10-06T11:48:51.589Z,14.65
2022-10-06T11:51:59.118Z,13.38
2022-10-06T11:55:16.095Z,13.73
2022-10-06T12:01:43.939Z,15.82
2022-10-06T12:05:28.676Z,12.23
2022-10-06T12:08:40.179Z,13.38
2022-10-06T12:11:45.436Z,12.77
2022-10-06T12:18:40.603Z,14.18
2022-10-06T12:21:51.991Z,15.05
2022-10-06T12:25:03.550Z,14.75
2022-10-06T12:28:35.433Z,18.60
2022-10-06T12:31:47.492Z,15.70
2022-10-06T12:35:08.498Z,14.50
2022-10-06T12:38:35.407Z,10.60
2022-10-06T12:42:18.714Z,15.45
2022-10-06T12:45:22.520Z,11.57
2022-10-06T12:48:42.207Z,21.17
2022-10-06T12:51:48.605Z,10.23
2022-10-06T12:55:27.671Z,10.27
2022-10-06T12:58:32.552Z,10.25
2022-10-06T13:01:35.113Z,23.55
2022-10-06T13:04:43.069Z,20.77
2022-10-06T13:08:00.023Z,13.88
2022-10-06T13:11:24.888Z,13.70
2022-10-06T13:14:27.145Z,15.27
2022-10-06T13:17:29.710Z,14.70
2022-10-06T13:20:36.267Z,13.48
2022-10-06T13:23:40.495Z,15.20
2022-10-06T13:26:42.947Z,12.87
2022-10-06T13:29:45.560Z,10.53
2022-10-06T13:32:53.862Z,9.15
2022-10-06T13:36:00.506Z,9.60
2022-10-06T13:39:13.205Z,11.32
2022-10-06T13:42:20.370Z,11.52
2022-10-06T13:45:23.862Z,12.00
2022-10-06T13:48:27.487Z,7.57
2022-10-06T13:51:32.499Z,11.45
2022-10-06T13:54:55.751Z,8.75
2022-10-06T13:58:18.141Z,12.43
2022-10-06T14:01:29.642Z,11.02
2022-10-06T14:04:34.744Z,18.92
2022-10-06T14:07:44.000Z,8.50
2022-10-06T14:10:52.150Z,12.15
2022-10-06T14:13:56.269Z,10.18
2022-10-06T14:16:59.114Z,9.98
2022-10-06T14:20:01.833Z,8.10
2022-10-06T14:23:35.407Z,13.13
2022-10-06T14:26:37.678Z,10.07
2022-10-06T14:29:41.318Z,11.38
2022-10-06T14:32:43.562Z,8.50
2022-10-06T14:35:46.047Z,13.52
2022-10-06T14:38:50.478Z,9.60
2022-10-06T14:41:52.979Z,18.23
2022-10-06T14:44:55.263Z,9.45
2022-10-06T14:47:59.440Z,10.05
2022-10-06T14:51:03.560Z,10.68
2022-10-06T14:54:07.565Z,10.23
2022-10-06T14:57:09.850Z,7.97
2022-10-06T15:00:13.187Z,9.48
2022-10-06T15:03:15.632Z,10.27
2022-10-06T15:06:37.171Z,7.70
2022-10-06T15:09:39.439Z,13.25
2022-10-06T15:12:41.972Z,11.02
2022-10-06T15:15:44.268Z,8.02
2022-10-06T15:18:46.845Z,13.18
2022-10-06T15:21:49.098Z,7.40
2022-10-06T15:24:51.815Z,13.20
2022-10-06T15:28:12.643Z,12.43
2022-10-06T15:31:23.216Z,7.40
2022-10-06T15:34:27.921Z,10.43
2022-10-06T15:37:30.919Z,14.80
2022-10-06T15:40:33.154Z,5.53
2022-10-06T15:43:55.569Z,10.65
2022-10-06T15:46:58.402Z,7.97
2022-10-06T15:50:00.960Z,9.38
2022-10-06T15:53:03.512Z,5.85
2022-10-06T15:56:06.051Z,7.80
2022-10-06T15:59:08.318Z,7.87
2022-10-06T16:02:16.941Z,12.13
2022-10-06T16:05:39.737Z,7.57
2022-10-06T16:08:42.085Z,8.90
2022-10-06T16:11:45.243Z,8.35
2022-10-06T16:14:47.682Z,10.25
2022-10-06T16:17:50.148Z,9.77
2022-10-06T16:20:54.286Z,9.98
2022-10-06T16:23:57.977Z,12.07
2022-10-06T16:27:00.479Z,12.55
2022-10-06T16:30:03.516Z,10.93
2022-10-06T16:33:05.730Z,9.77
2022-10-06T16:36:09.797Z,8.00
2022-10-06T16:39:20.491Z,10.43
2022-10-06T16:42:24.217Z,7.07
2022-10-06T16:45:26.510Z,7.70
2022-10-06T16:48:34.595Z,7.62
2022-10-06T16:51:39.249Z,9.93
2022-10-06T16:54:41.753Z,11.75
2022-10-06T16:57:43.951Z,10.52
2022-10-06T17:00:56.283Z,9.80
2022-10-06T17:04:01.335Z,8.73
2022-10-06T17:07:04.431Z,11.20
2022-10-06T17:10:20.284Z,10.97
2022-10-06T17:13:23.691Z,12.15
2022-10-06T17:16:29.307Z,9.73
2022-10-06T17:19:32.084Z,15.10
2022-10-06T17:22:34.338Z,11.98
2022-10-06T17:25:36.977Z,14.20
2022-10-06T17:28:41.035Z,9.70
2022-10-06T17:31:43.954Z,10.82
2022-10-06T17:34:48.514Z,12.75
2022-10-06T17:37:51.029Z,11.27
2022-10-06T17:40:54.269Z,10.60
2022-10-06T17:44:03.213Z,10.52
2022-10-06T17:47:05.437Z,13.13
2022-10-06T17:50:08.230Z,10.18
2022-10-06T17:53:10.457Z,8.32
2022-10-06T17:56:15.486Z,9.35
2022-10-06T17:59:23.471Z,12.25
2022-10-06T18:02:25.993Z,13.40
2022-10-06T18:05:32.795Z,11.18
2022-10-06T18:08:35.464Z,11.68
2022-10-06T18:11:39.799Z,13.25
2022-10-06T18:14:43.370Z,19.85
2022-10-06T18:20:48.303Z,12.98
2022-10-06T18:23:51.099Z,13.80
2022-10-06T18:26:55.392Z,15.45
2022-10-06T18:29:57.977Z,13.23
2022-10-06T18:36:24.081Z,13.88
2022-10-06T18:39:26.805Z,12.98
2022-10-06T18:42:29.643Z,12.70
2022-10-06T18:45:50.261Z,17.33
2022-10-06T18:48:56.900Z,11.85
2022-10-06T18:51:59.166Z,14.45
2022-10-06T18:55:02.491Z,13.48
2022-10-06T18:58:05.248Z,15.60
2022-10-06T19:01:09.551Z,12.77
2022-10-06T19:04:15.169Z,12.52
2022-10-06T19:07:17.704Z,11.38
2022-10-06T19:10:20.021Z,12.27
2022-10-06T19:13:22.562Z,17.98
2022-10-06T19:16:25.387Z,15.52
2022-10-06T19:19:29.898Z,16.33
2022-10-06T19:22:33.619Z,18.23
2022-10-06T19:25:36.119Z,20.02
2022-10-06T19:28:39.428Z,23.83
2022-10-06T19:31:45.107Z,18.45
2022-10-06T19:34:48.417Z,16.48
2022-10-06T19:37:51.706Z,18.17
2022-10-06T19:40:53.898Z,19.77
2022-10-06T19:43:58.114Z,19.50
2022-10-06T19:50:08.762Z,15.10
2022-10-06T19:53:12.964Z,21.23
2022-10-06T19:56:17.617Z,21.58
2022-10-06T19:59:23.907Z,18.35
2022-10-06T20:02:27.229Z,15.15
2022-10-06T20:05:30.055Z,15.43
2022-10-06T20:08:32.308Z,18.70
2022-10-06T20:11:36.911Z,17.80
2022-10-06T20:14:39.104Z,17.55
2022-10-06T20:17:42.688Z,16.85
2022-10-06T20:20:56.023Z,18.08
2022-10-06T20:24:01.468Z,19.83
2022-10-06T20:27:03.674Z,15.82
2022-10-06T20:30:06.861Z,22.15
2022-10-06T20:33:11.304Z,16.60
2022-10-06T20:36:14.790Z,18.45
2022-10-06T20:39:38.824Z,17.37
2022-10-06T20:42:44.769Z,14.87
2022-10-06T20:45:47.079Z,13.50
2022-10-06T20:48:50.440Z,15.60
2022-10-06T20:51:52.748Z,16.87
2022-10-06T20:54:55.288Z,13.23
2022-10-06T20:57:57.462Z,20.00
2022-10-06T21:01:05.932Z,18.33
2022-10-06T21:04:09.295Z,18.05
2022-10-06T21:07:12.179Z,17.52
2022-10-06T21:10:14.456Z,16.25
2022-10-06T21:13:17.095Z,17.10
2022-10-06T21:16:21.119Z,18.52
2022-10-06T21:19:25.096Z,18.42
2022-10-06T21:22:31.428Z,20.92
2022-10-06T21:25:37.356Z,22.83
2022-10-06T21:28:40.087Z,22.30
2022-10-06T21:31:44.141Z,20.48
2022-10-06T21:34:46.438Z,22.40
2022-10-06T21:37:49.102Z,19.60
2022-10-06T21:40:51.301Z,22.85
2022-10-06T21:43:55.031Z,22.45
2022-10-06T21:46:57.371Z,21.33
2022-10-06T21:50:00.113Z,19.35
2022-10-06T21:53:02.318Z,17.17
2022-10-06T21:56:04.800Z,19.15
2022-10-06T21:59:07.807Z,19.55
2022-10-06T22:02:10.378Z,18.42
2022-10-06T22:05:12.915Z,22.10
2022-10-06T22:08:15.131Z,19.65
2022-10-06T22:11:23.326Z,17.08
2022-10-06T22:14:25.580Z,18.15
2022-10-06T22:17:28.154Z,17.95
2022-10-06T22:20:31.953Z,16.65
2022-10-06T22:23:34.654Z,21.67
2022-10-06T22:26:38.768Z,20.20
2022-10-06T22:29:42.407Z,16.48
2022-10-06T22:32:44.634Z,22.13
2022-10-06T22:35:51.455Z,20.92
2022-10-06T22:38:53.838Z,17.45
2022-10-06T22:41:56.309Z,19.67
2022-10-06T22:44:58.518Z,14.05
2022-10-06T22:48:01.031Z,16.55
2022-10-06T22:51:03.961Z,15.68
2022-10-06T22:54:06.428Z,15.20
2022-10-06T22:57:10.704Z,19.80
2022-10-06T23:00:13.729Z,13.48
2022-10-06T23:03:17.596Z,17.55
2022-10-06T23:06:22.603Z,15.50
2022-10-06T23:09:24.944Z,19.58
2022-10-06T23:12:30.225Z,15.85
2022-10-06T23:15:32.491Z,16.35
2022-10-06T23:18:37.266Z,21.83
2022-10-06T23:21:40.322Z,17.37
2022-10-06T23:24:42.832Z,14.87
2022-10-06T23:27:45.404Z,17.05
2022-10-06T23:30:48.225Z,14.07
2022-10-06T23:33:50.585Z,16.05
2022-10-06T23:36:53.086Z,15.93
2022-10-06T23:39:55.279Z,15.77
2022-10-06T23:42:59.051Z,12.68
2022-10-06T23:46:02.105Z,12.95
2022-10-06T23:49:04.863Z,15.65
2022-10-06T23:52:07.124Z,16.77
2022-10-06T23:55:11.794Z,17.00
2022-10-06T23:58:14.769Z,13.57
